Adelaide, Australia

7:39 PM ACDT on January 20, 2017 (GMT +1030)
Adelaide International | | Change Station

Elev 13 ft 34.93 °S, 138.52 °E | Updated 9 minutes ago

Clear
Clear
68 °F
Feels Like 68 °F
N
15
Wind Variable Wind from SSE

Today
High -- | Low -- °F
--% Chance of Precip.
Yesterday
High -- | Low -- °F
Precip. -- in
Pressure 29.80 in
Visibility 6.2 miles
Clouds Few 4000 ft
Dew Point 48 °F
Humidity 49%
Rainfall 0.00 in
Snow Depth Not available.
6:22 AM 8:30 PM
Last Quarter, 46% visible
METAR YPAD 200900Z 15013KT 9999 FEW040 20/09 Q1009 NOSIG
Pressure 29.80 in
Visibility 6.2 miles
Clouds Few 4000 ft
Dew Point 48 °F
Humidity 49%
Rainfall 0.00 in
Snow Depth Not available.
6:22 AM 8:30 PM
Last Quarter, 46% visible
METAR YPAD 200900Z 15013KT 9999 FEW040 20/09 Q1009 NOSIG

Get Your Daily Forecast Email!

Thanks for signing up!

Be on the lookout for a verification email in your inbox.

You'll start receiving the daily forecast at 8 AM.

×

10-Day Weather Forecast

×

Almanac

Astronomy

Jan. 20, 2017 Rise Set
Actual Time
Civil Twilight
Nautical Twilight
Astronomical Twilight
Moon
Length of Visible Light
Length of Day
Tomorrow will be .
, % of the Moon is Illuminated

Today's Extremes

Country Highs Country Lows

Community

WunderPhotos

Upload Photos

1,962,540 photos uploaded!

WunderBlog® & News

Nearby

Air Quality

  Air Quality AQ Index Pollutant
Not available.

Snow Depth

Station Depth Elevation

Earthquake Activity

City Distance Mag. Time & Date
Minimum magnitude displayed is 2.5.

Coastal Water Temperatures

Place Temperature

Stations

Nearby Weather Stations

Station Location Temp. Windchill Dew Point Humidity Wind Precip. Elev Updated Type